Time;durP1;ratioP1;P1;durP2;ratioP2;P2;SDS_P1;SDS_P2;PMS_P1;PMS_P2;Temp;Humidity;BMP_temperature;BMP_pressure;BME280_temperature;BME280_humidity;BME280_pressure;Samples;Min_cycle;Max_cycle;Signal;HPM_P1;HPM_P2
2023/05/24 00:01:36;;;;;;;17.77;12.07;;;10.40;99.90;;;;;;470991;253;28343;-83
2023/05/24 00:03:38;;;;;;;16.00;11.90;;;10.40;99.90;;;;;;470878;253;28305;-81
2023/05/24 00:05:39;;;;;;;17.33;12.20;;;10.40;99.90;;;;;;470835;251;28312;-79
2023/05/24 00:07:38;;;;;;;16.47;12.40;;;10.40;99.90;;;;;;470824;253;28107;-81
2023/05/24 00:09:39;;;;;;;19.10;12.43;;;10.40;99.90;;;;;;470958;253;28258;-80
2023/05/24 00:11:40;;;;;;;17.30;11.80;;;10.50;99.90;;;;;;470935;253;27854;-81
2023/05/24 00:13:42;;;;;;;18.83;10.73;;;10.50;99.90;;;;;;470951;253;28304;-84
2023/05/24 00:15:43;;;;;;;16.47;10.27;;;10.60;99.90;;;;;;470910;251;28066;-81
2023/05/24 00:17:44;;;;;;;14.10;9.90;;;10.50;99.90;;;;;;470935;253;28157;-81
2023/05/24 00:19:45;;;;;;;13.07;9.40;;;10.40;99.90;;;;;;470938;251;27992;-80
2023/05/24 00:21:47;;;;;;;17.10;10.33;;;10.50;99.90;;;;;;470935;253;28254;-80
2023/05/24 00:23:50;;;;;;;17.23;9.40;;;10.50;99.90;;;;;;470961;253;28093;-79
2023/05/24 00:25:49;;;;;;;21.27;9.60;;;10.40;99.90;;;;;;470792;253;28317;-82
2023/05/24 00:27:50;;;;;;;15.30;9.97;;;10.40;99.90;;;;;;470963;253;28231;-83
2023/05/24 00:29:52;;;;;;;17.47;9.47;;;10.40;99.90;;;;;;470972;253;28188;-79
2023/05/24 00:31:53;;;;;;;11.53;8.90;;;10.40;99.90;;;;;;470978;253;27972;-82
2023/05/24 00:33:54;;;;;;;15.10;9.67;;;10.40;99.90;;;;;;470994;253;28101;-81
2023/05/24 00:35:55;;;;;;;17.93;9.60;;;10.30;99.90;;;;;;470926;253;28192;-79
2023/05/24 00:37:57;;;;;;;13.73;8.47;;;10.20;99.90;;;;;;470936;253;28241;-81
2023/05/24 00:39:58;;;;;;;14.50;8.13;;;10.20;99.90;;;;;;470869;253;28180;-81
2023/05/24 00:41:59;;;;;;;18.57;8.80;;;10.10;99.90;;;;;;470891;253;28329;-80
2023/05/24 00:44:00;;;;;;;16.60;8.23;;;10.20;99.90;;;;;;470907;253;28111;-80
2023/05/24 00:46:02;;;;;;;13.20;7.90;;;10.10;99.90;;;;;;470869;251;28101;-81
2023/05/24 00:48:03;;;;;;;11.80;8.27;;;10.10;99.90;;;;;;470866;251;28000;-81
2023/05/24 00:50:04;;;;;;;16.87;8.17;;;10.00;99.90;;;;;;470866;251;28120;-81
2023/05/24 00:52:05;;;;;;;15.83;8.10;;;10.00;99.90;;;;;;470847;253;28101;-82
2023/05/24 00:54:07;;;;;;;13.53;8.53;;;10.00;99.90;;;;;;470847;253;28067;-83
2023/05/24 00:56:08;;;;;;;11.13;7.53;;;9.90;99.90;;;;;;470846;253;28115;-80
2023/05/24 00:58:09;;;;;;;13.93;7.80;;;9.90;99.90;;;;;;470873;251;28124;-82
2023/05/24 01:00:10;;;;;;;19.80;8.13;;;9.80;99.90;;;;;;470872;251;28093;-80
2023/05/24 01:02:12;;;;;;;16.70;8.33;;;9.80;99.90;;;;;;470893;253;27998;-82
2023/05/24 01:04:13;;;;;;;19.67;8.87;;;9.80;99.90;;;;;;470890;253;28061;-80
2023/05/24 01:06:15;;;;;;;15.40;7.53;;;9.70;99.90;;;;;;470920;253;28125;-81
2023/05/24 01:08:15;;;;;;;20.40;8.40;;;9.60;99.90;;;;;;470875;251;28014;-83
2023/05/24 01:10:17;;;;;;;16.03;8.83;;;9.60;99.90;;;;;;470877;253;27935;-83
2023/05/24 01:12:18;;;;;;;14.67;8.13;;;9.60;99.90;;;;;;470873;253;27999;-84
2023/05/24 01:14:20;;;;;;;16.23;8.53;;;9.50;99.90;;;;;;470847;253;28025;-79
2023/05/24 01:16:20;;;;;;;15.90;8.10;;;9.50;99.90;;;;;;470858;253;27955;-84
2023/05/24 01:18:25;;;;;;;11.30;7.70;;;9.50;99.90;;;;;;470801;253;28121;-80
2023/05/24 01:20:23;;;;;;;12.70;7.87;;;9.40;99.90;;;;;;470689;253;27862;-83
2023/05/24 01:22:24;;;;;;;17.47;9.00;;;9.30;99.90;;;;;;470914;251;28013;-80
2023/05/24 01:24:26;;;;;;;14.17;8.70;;;9.30;99.90;;;;;;470906;251;27960;-83
2023/05/24 01:26:27;;;;;;;17.50;8.47;;;9.30;99.90;;;;;;470882;253;27994;-78
2023/05/24 01:28:28;;;;;;;13.17;8.10;;;9.30;99.90;;;;;;470856;251;28196;-82
2023/05/24 01:30:29;;;;;;;15.73;9.03;;;9.20;99.90;;;;;;470899;253;28004;-80
2023/05/24 01:32:31;;;;;;;13.37;8.07;;;9.20;99.90;;;;;;470907;253;27998;-82
2023/05/24 01:34:32;;;;;;;16.73;8.73;;;9.20;99.90;;;;;;470880;253;27934;-83
2023/05/24 01:36:33;;;;;;;16.97;8.17;;;9.10;99.90;;;;;;470900;253;28016;-81
2023/05/24 01:38:35;;;;;;;15.67;8.07;;;9.00;99.90;;;;;;470898;251;27985;-82
2023/05/24 01:40:36;;;;;;;15.30;7.97;;;9.00;99.90;;;;;;470951;251;28091;-80
2023/05/24 01:42:37;;;;;;;15.40;8.40;;;9.00;99.90;;;;;;470947;253;27851;-81
2023/05/24 01:44:38;;;;;;;14.23;8.40;;;9.00;99.90;;;;;;470979;253;27725;-82
2023/05/24 01:46:39;;;;;;;12.93;7.50;;;9.00;99.90;;;;;;470947;251;27723;-81
2023/05/24 01:48:41;;;;;;;16.10;8.80;;;9.00;99.90;;;;;;470903;253;28099;-80
2023/05/24 01:50:42;;;;;;;14.70;7.93;;;8.90;99.90;;;;;;470886;253;28062;-82
2023/05/24 01:52:43;;;;;;;16.10;7.77;;;8.90;99.90;;;;;;470897;253;28021;-81
2023/05/24 01:54:44;;;;;;;15.13;7.97;;;8.90;99.90;;;;;;470852;251;28118;-84
2023/05/24 01:56:46;;;;;;;11.90;7.00;;;8.90;99.90;;;;;;470895;253;28047;-82
2023/05/24 01:58:47;;;;;;;19.10;8.23;;;8.90;99.90;;;;;;470835;253;27840;-84
2023/05/24 02:00:48;;;;;;;16.93;7.93;;;8.90;99.90;;;;;;470881;253;28023;-81
2023/05/24 02:02:49;;;;;;;18.60;8.00;;;8.80;99.90;;;;;;470913;253;27944;-79
2023/05/24 02:04:51;;;;;;;14.30;7.50;;;8.80;99.90;;;;;;470847;251;28063;-82
2023/05/24 02:06:52;;;;;;;12.60;7.57;;;8.90;99.90;;;;;;470867;253;27862;-83
2023/05/24 02:08:53;;;;;;;15.30;7.20;;;8.90;99.90;;;;;;470879;253;28011;-82
2023/05/24 02:10:54;;;;;;;10.03;6.80;;;8.90;99.90;;;;;;470892;251;27933;-83
2023/05/24 02:12:56;;;;;;;16.40;8.20;;;8.90;99.90;;;;;;470834;253;28023;-83
2023/05/24 02:14:57;;;;;;;19.20;7.40;;;8.90;99.90;;;;;;470872;253;27511;-84
2023/05/24 02:16:59;;;;;;;18.27;8.27;;;8.90;99.90;;;;;;470862;253;28008;-81
2023/05/24 02:18:59;;;;;;;13.87;6.50;;;8.90;99.90;;;;;;470917;253;28018;-78
2023/05/24 02:21:01;;;;;;;13.00;6.83;;;8.90;99.90;;;;;;470901;253;27654;-82
2023/05/24 02:23:02;;;;;;;13.07;7.10;;;8.90;99.90;;;;;;470888;251;28090;-81
2023/05/24 02:25:03;;;;;;;12.07;6.70;;;8.80;99.90;;;;;;470905;253;27599;-84
2023/05/24 02:27:04;;;;;;;17.10;7.43;;;8.80;99.90;;;;;;470906;251;28109;-80
2023/05/24 02:29:06;;;;;;;22.63;7.60;;;8.80;99.90;;;;;;470930;251;27983;-84
2023/05/24 02:31:07;;;;;;;17.03;7.10;;;8.80;99.90;;;;;;470888;253;27998;-80
2023/05/24 02:33:08;;;;;;;19.87;7.20;;;8.90;99.90;;;;;;470903;253;28114;-83
2023/05/24 02:35:09;;;;;;;10.97;6.33;;;8.90;99.90;;;;;;470828;253;28124;-82
2023/05/24 02:37:14;;;;;;;14.87;6.47;;;8.90;99.90;;;;;;470875;251;28067;-81
2023/05/24 02:39:12;;;;;;;10.83;6.57;;;8.90;99.90;;;;;;470756;253;27971;-82
2023/05/24 02:41:16;;;;;;;11.13;6.67;;;9.00;99.90;;;;;;470904;253;27600;-81
2023/05/24 02:43:14;;;;;;;13.10;6.90;;;9.00;99.90;;;;;;470675;253;28009;-81
2023/05/24 02:45:16;;;;;;;14.80;6.77;;;9.00;99.90;;;;;;470880;253;27746;-82
2023/05/24 02:47:17;;;;;;;15.00;7.10;;;8.90;99.90;;;;;;470898;253;27953;-82
2023/05/24 02:49:18;;;;;;;11.00;5.93;;;8.80;99.90;;;;;;470911;253;28098;-81
2023/05/24 02:51:19;;;;;;;18.43;7.10;;;8.80;99.90;;;;;;470927;253;28013;-80
2023/05/24 02:53:21;;;;;;;12.90;6.50;;;8.80;99.90;;;;;;470869;251;27869;-81
2023/05/24 02:55:22;;;;;;;12.43;7.00;;;8.80;99.90;;;;;;470869;253;28040;-79
2023/05/24 02:57:23;;;;;;;15.53;7.67;;;8.70;99.90;;;;;;470874;253;28117;-80
2023/05/24 02:59:24;;;;;;;16.37;6.77;;;8.70;99.90;;;;;;470920;251;27839;-84
2023/05/24 03:01:26;;;;;;;13.63;7.43;;;8.70;99.90;;;;;;470864;253;28092;-82
2023/05/24 03:03:27;;;;;;;19.50;7.40;;;8.70;99.90;;;;;;470860;253;28004;-81
2023/05/24 03:05:28;;;;;;;12.93;6.50;;;8.70;99.90;;;;;;470798;253;27643;-81
2023/05/24 03:07:29;;;;;;;15.37;7.03;;;8.70;99.90;;;;;;470889;253;28002;-84
2023/05/24 03:09:31;;;;;;;11.13;6.40;;;8.70;99.90;;;;;;470928;253;28312;-82
2023/05/24 03:11:32;;;;;;;15.73;6.87;;;8.80;99.90;;;;;;470857;253;27991;-83
2023/05/24 03:13:33;;;;;;;20.23;7.27;;;8.80;99.90;;;;;;470821;251;28108;-81
2023/05/24 03:15:34;;;;;;;12.60;6.73;;;8.70;99.90;;;;;;470843;253;27867;-83
2023/05/24 03:17:36;;;;;;;13.43;6.70;;;8.80;99.90;;;;;;470878;253;27961;-83
2023/05/24 03:19:37;;;;;;;12.30;6.47;;;8.90;99.90;;;;;;470926;253;27707;-80
2023/05/24 03:21:38;;;;;;;13.60;6.17;;;8.90;99.90;;;;;;470884;253;27989;-81
2023/05/24 03:23:39;;;;;;;15.03;6.30;;;8.80;99.90;;;;;;470854;251;28104;-80
2023/05/24 03:25:41;;;;;;;14.00;6.13;;;8.80;99.90;;;;;;470827;251;28006;-81
2023/05/24 03:27:42;;;;;;;10.47;5.57;;;8.80;99.90;;;;;;470824;253;27892;-84
2023/05/24 03:29:43;;;;;;;10.53;6.60;;;8.80;99.90;;;;;;470888;253;27589;-82
2023/05/24 03:31:44;;;;;;;12.90;5.83;;;8.50;99.90;;;;;;470890;251;27985;-79
2023/05/24 03:33:46;;;;;;;22.43;7.77;;;8.50;99.90;;;;;;470920;253;27991;-81
2023/05/24 03:35:47;;;;;;;14.77;6.27;;;8.50;99.90;;;;;;470901;253;27931;-82
2023/05/24 03:37:48;;;;;;;13.10;5.83;;;8.50;99.90;;;;;;470898;253;27874;-81
2023/05/24 03:39:50;;;;;;;13.93;6.70;;;8.50;99.90;;;;;;470907;253;28085;-82
2023/05/24 03:41:51;;;;;;;11.97;6.37;;;8.40;99.90;;;;;;470911;251;27901;-81
2023/05/24 03:43:52;;;;;;;17.77;6.30;;;8.40;99.90;;;;;;470873;253;27768;-80
2023/05/24 03:45:53;;;;;;;19.03;6.20;;;8.40;99.90;;;;;;470816;253;28014;-83
2023/05/24 03:47:55;;;;;;;16.23;6.23;;;8.40;99.90;;;;;;470913;253;27622;-80
2023/05/24 03:49:56;;;;;;;14.77;6.20;;;8.40;99.90;;;;;;470895;253;27750;-82
2023/05/24 03:51:57;;;;;;;14.70;6.47;;;8.40;99.90;;;;;;470914;251;27889;-81
2023/05/24 03:53:58;;;;;;;13.70;5.73;;;8.30;99.90;;;;;;470851;253;27953;-81
2023/05/24 03:56:00;;;;;;;13.93;5.90;;;8.30;99.90;;;;;;470828;253;27733;-81
2023/05/24 03:58:01;;;;;;;13.90;5.70;;;8.30;99.90;;;;;;470851;253;27624;-84
2023/05/24 04:00:02;;;;;;;12.13;5.53;;;8.40;99.90;;;;;;470890;253;28091;-81
2023/05/24 04:02:03;;;;;;;19.77;5.40;;;8.40;99.90;;;;;;470864;253;28030;-82
2023/05/24 04:04:05;;;;;;;14.80;6.10;;;8.50;99.90;;;;;;470816;253;28082;-80
2023/05/24 04:06:06;;;;;;;13.57;4.93;;;8.40;99.90;;;;;;470806;251;28128;-82
2023/05/24 04:08:07;;;;;;;16.40;5.93;;;8.30;99.90;;;;;;470883;253;27707;-81
2023/05/24 04:10:08;;;;;;;11.80;5.37;;;8.40;99.90;;;;;;470884;253;28106;-81
2023/05/24 04:12:10;;;;;;;13.03;5.93;;;8.50;99.90;;;;;;470872;253;28040;-82
2023/05/24 04:14:11;;;;;;;15.40;5.40;;;8.40;99.90;;;;;;470888;253;28018;-79
2023/05/24 04:16:12;;;;;;;15.50;5.60;;;8.40;99.90;;;;;;470872;251;27867;-83
2023/05/24 04:18:13;;;;;;;14.33;5.80;;;8.40;99.90;;;;;;470855;253;27860;-79
2023/05/24 04:20:15;;;;;;;13.00;5.00;;;8.40;99.90;;;;;;470907;251;27879;-81
2023/05/24 04:22:17;;;;;;;11.00;6.10;;;8.50;99.90;;;;;;470890;251;27746;-84
2023/05/24 04:24:17;;;;;;;14.93;5.77;;;8.50;99.90;;;;;;470829;251;27836;-82
2023/05/24 04:26:20;;;;;;;19.07;5.20;;;8.40;99.90;;;;;;470896;251;28054;-82
2023/05/24 04:28:21;;;;;;;8.27;4.40;;;8.40;99.90;;;;;;470866;251;27675;-79
2023/05/24 04:30:21;;;;;;;20.37;5.50;;;8.50;99.90;;;;;;470829;253;28008;-82
2023/05/24 04:32:22;;;;;;;10.57;4.60;;;8.50;99.90;;;;;;470905;251;28062;-80
2023/05/24 04:34:23;;;;;;;12.50;4.80;;;8.50;99.90;;;;;;470894;251;28230;-82
2023/05/24 04:36:25;;;;;;;12.30;5.50;;;8.40;99.90;;;;;;470877;253;27990;-82
2023/05/24 04:38:28;;;;;;;14.93;4.93;;;8.50;99.90;;;;;;470913;251;28053;-84
2023/05/24 04:40:27;;;;;;;17.63;5.43;;;8.50;99.90;;;;;;470714;253;27945;-81
2023/05/24 04:42:30;;;;;;;15.67;5.00;;;8.40;99.90;;;;;;470926;253;27972;-80
2023/05/24 04:44:30;;;;;;;13.80;4.70;;;8.50;99.90;;;;;;470784;253;28209;-82
2023/05/24 04:46:31;;;;;;;15.63;4.77;;;8.40;99.90;;;;;;470895;253;28093;-82
2023/05/24 04:48:32;;;;;;;17.40;5.63;;;8.40;99.90;;;;;;470923;253;28050;-81
2023/05/24 04:50:36;;;;;;;11.73;5.23;;;8.40;99.90;;;;;;470889;253;28164;-81
2023/05/24 04:52:35;;;;;;;17.20;4.90;;;8.40;99.90;;;;;;470821;253;27866;-80
2023/05/24 04:54:36;;;;;;;10.13;4.90;;;8.30;99.90;;;;;;470916;253;27892;-81
2023/05/24 04:56:37;;;;;;;19.60;4.73;;;8.40;99.90;;;;;;470926;253;27503;-81
2023/05/24 04:58:38;;;;;;;12.27;4.77;;;8.40;99.90;;;;;;470959;253;27946;-80
2023/05/24 05:00:40;;;;;;;16.50;4.73;;;8.30;99.90;;;;;;470921;253;28208;-82
2023/05/24 05:02:41;;;;;;;22.20;5.00;;;8.30;99.90;;;;;;470823;253;28064;-80
2023/05/24 05:04:42;;;;;;;16.87;5.37;;;8.30;99.90;;;;;;470857;253;28021;-80
2023/05/24 05:06:43;;;;;;;13.07;4.90;;;8.30;99.90;;;;;;470789;253;27779;-81
2023/05/24 05:08:46;;;;;;;14.30;5.47;;;8.30;99.90;;;;;;470919;253;28074;-82
2023/05/24 05:10:47;;;;;;;17.50;5.13;;;8.40;99.90;;;;;;470871;253;28075;-80
2023/05/24 05:12:47;;;;;;;17.60;5.37;;;8.40;99.90;;;;;;470936;253;27716;-82
2023/05/24 05:14:49;;;;;;;16.50;4.77;;;8.40;99.90;;;;;;470930;253;27872;-80
2023/05/24 05:16:50;;;;;;;16.70;4.90;;;8.40;99.90;;;;;;470936;253;27872;-83
2023/05/24 05:18:51;;;;;;;20.37;5.90;;;8.50;99.90;;;;;;470911;253;27945;-81
2023/05/24 05:20:52;;;;;;;11.00;4.57;;;8.50;99.90;;;;;;470946;253;27992;-81
2023/05/24 05:22:53;;;;;;;11.40;4.90;;;8.50;99.90;;;;;;470911;251;27919;-83
2023/05/24 05:24:55;;;;;;;10.90;5.07;;;8.40;99.90;;;;;;470831;251;28061;-81
2023/05/24 05:26:56;;;;;;;12.70;4.60;;;8.40;99.90;;;;;;470876;251;27854;-80
2023/05/24 05:28:57;;;;;;;12.67;4.20;;;8.40;99.90;;;;;;470875;253;28044;-81
2023/05/24 05:30:58;;;;;;;15.60;5.13;;;8.40;99.90;;;;;;470830;253;27962;-82
2023/05/24 05:33:00;;;;;;;17.43;5.57;;;8.30;99.90;;;;;;470840;253;28100;-79
2023/05/24 05:35:01;;;;;;;14.47;4.63;;;8.30;99.90;;;;;;470888;251;27994;-80
2023/05/24 05:37:02;;;;;;;9.60;4.50;;;8.30;99.90;;;;;;470919;253;27987;-80
2023/05/24 05:39:03;;;;;;;17.23;5.10;;;8.40;99.90;;;;;;470942;251;28038;-81
2023/05/24 05:41:06;;;;;;;14.13;4.30;;;8.40;99.90;;;;;;470903;253;28138;-82
2023/05/24 05:43:07;;;;;;;12.30;4.77;;;8.50;99.90;;;;;;470837;253;27768;-80
2023/05/24 05:45:07;;;;;;;17.13;4.70;;;8.50;99.90;;;;;;470799;253;27979;-82
2023/05/24 05:47:09;;;;;;;14.70;4.80;;;8.30;99.90;;;;;;470910;253;28107;-80
2023/05/24 05:49:10;;;;;;;13.10;4.43;;;8.50;99.90;;;;;;470862;251;27960;-81
2023/05/24 05:51:11;;;;;;;14.90;4.00;;;8.50;99.90;;;;;;470880;253;27980;-81
2023/05/24 05:53:12;;;;;;;12.13;4.80;;;8.60;99.90;;;;;;470901;253;27956;-82
2023/05/24 05:55:14;;;;;;;15.83;5.30;;;8.60;99.90;;;;;;470916;251;28024;-81
2023/05/24 05:57:15;;;;;;;10.27;4.97;;;8.60;99.90;;;;;;470895;253;27725;-82
2023/05/24 05:59:16;;;;;;;9.30;4.13;;;8.60;99.90;;;;;;470925;253;27961;-80
2023/05/24 06:01:17;;;;;;;15.93;4.90;;;8.70;99.90;;;;;;470925;253;27840;-81
2023/05/24 06:03:19;;;;;;;8.50;4.53;;;8.70;99.90;;;;;;470900;253;28032;-83
2023/05/24 06:05:20;;;;;;;11.07;5.20;;;8.60;99.90;;;;;;470906;251;27977;-79
2023/05/24 06:07:21;;;;;;;15.40;5.60;;;8.60;99.90;;;;;;470921;253;28148;-81
2023/05/24 06:09:22;;;;;;;15.83;4.67;;;8.60;99.90;;;;;;470949;253;28071;-81
2023/05/24 06:11:24;;;;;;;14.83;4.80;;;8.60;99.90;;;;;;470961;253;28019;-81
2023/05/24 06:13:27;;;;;;;16.27;4.97;;;8.70;99.90;;;;;;470932;251;27874;-82
2023/05/24 06:15:26;;;;;;;11.57;4.60;;;8.80;99.90;;;;;;470778;253;28053;-83
2023/05/24 06:17:27;;;;;;;19.23;5.20;;;8.90;99.90;;;;;;470864;253;28285;-82
2023/05/24 06:19:29;;;;;;;10.43;4.20;;;8.80;99.90;;;;;;470856;251;28043;-81
2023/05/24 06:21:31;;;;;;;11.93;4.67;;;9.00;99.90;;;;;;470916;253;27984;-81
2023/05/24 06:23:31;;;;;;;10.70;4.43;;;9.00;99.90;;;;;;470853;253;28135;-82
2023/05/24 06:25:33;;;;;;;17.40;5.13;;;8.80;99.90;;;;;;470877;251;28008;-80
2023/05/24 06:27:34;;;;;;;16.93;4.60;;;8.90;99.90;;;;;;471000;251;27876;-79
2023/05/24 06:29:35;;;;;;;9.43;4.00;;;8.80;99.90;;;;;;470930;251;28016;-82
2023/05/24 06:31:36;;;;;;;11.73;4.20;;;8.90;99.90;;;;;;470927;253;27883;-80
2023/05/24 06:33:37;;;;;;;19.17;4.70;;;9.00;99.90;;;;;;470844;251;28059;-83
2023/05/24 06:35:39;;;;;;;14.10;4.93;;;9.00;99.90;;;;;;470851;253;28034;-83
2023/05/24 06:37:40;;;;;;;23.70;5.07;;;9.10;99.90;;;;;;470876;253;28020;-80
2023/05/24 06:39:41;;;;;;;12.03;4.60;;;9.20;99.90;;;;;;470889;253;27987;-81
2023/05/24 06:41:43;;;;;;;11.93;4.63;;;9.40;99.90;;;;;;470930;253;28082;-83
2023/05/24 06:43:44;;;;;;;15.13;4.40;;;9.60;99.90;;;;;;470951;251;27870;-82
2023/05/24 06:45:45;;;;;;;16.87;4.03;;;9.50;99.90;;;;;;470949;253;28004;-80
2023/05/24 06:47:46;;;;;;;16.87;4.20;;;9.50;99.90;;;;;;471016;253;28005;-80
2023/05/24 06:49:48;;;;;;;8.03;4.20;;;9.70;99.90;;;;;;471052;253;28102;-78
2023/05/24 06:51:49;;;;;;;18.30;4.50;;;9.80;99.90;;;;;;470997;251;28097;-80
2023/05/24 06:53:50;;;;;;;18.07;4.80;;;9.80;99.90;;;;;;471017;253;28085;-80
2023/05/24 06:55:51;;;;;;;12.97;4.43;;;9.70;99.90;;;;;;471011;246;28172;-80
2023/05/24 06:59:59;;;;;;;17.00;5.00;;;9.60;99.90;;;;;;478541;243;27909;-82
2023/05/24 07:02:00;;;;;;;14.13;4.43;;;9.70;99.90;;;;;;480400;237;27915;-80
2023/05/24 07:04:01;;;;;;;16.13;4.30;;;9.80;99.90;;;;;;488356;240;27938;-80
2023/05/24 07:06:02;;;;;;;10.30;4.10;;;9.50;99.90;;;;;;485240;245;28175;-81
2023/05/24 07:08:04;;;;;;;18.60;4.90;;;9.50;99.90;;;;;;488410;240;28006;-79
2023/05/24 07:10:05;;;;;;;8.97;3.80;;;9.50;99.90;;;;;;485776;242;27994;-79
2023/05/24 07:12:06;;;;;;;12.07;4.13;;;9.60;99.90;;;;;;488363;238;27912;-81
2023/05/24 07:14:07;;;;;;;13.93;4.03;;;9.50;99.90;;;;;;485271;246;28059;-79
2023/05/24 07:16:09;;;;;;;24.07;4.87;;;9.70;99.90;;;;;;488351;244;27936;-82
2023/05/24 07:18:10;;;;;;;16.20;4.83;;;9.50;99.90;;;;;;485807;242;28189;-83
2023/05/24 07:20:12;;;;;;;9.47;3.97;;;9.70;99.90;;;;;;488364;241;28575;-82
2023/05/24 07:22:12;;;;;;;12.87;4.40;;;9.80;99.90;;;;;;485288;245;28122;-81
2023/05/24 07:24:14;;;;;;;9.53;4.17;;;9.90;99.90;;;;;;488395;240;28255;-80
2023/05/24 07:26:15;;;;;;;14.03;4.20;;;9.80;99.90;;;;;;485788;242;27902;-80
2023/05/24 07:28:18;;;;;;;11.80;4.00;;;9.90;99.90;;;;;;488404;241;27963;-80
2023/05/24 07:30:17;;;;;;;14.93;3.97;;;10.00;99.90;;;;;;485299;242;28144;-80
2023/05/24 07:32:19;;;;;;;11.57;4.37;;;10.20;99.90;;;;;;488418;240;28130;-79
2023/05/24 07:34:21;;;;;;;16.40;5.10;;;10.00;99.90;;;;;;485810;245;28108;-78
2023/05/24 07:36:22;;;;;;;6.83;3.77;;;9.90;99.90;;;;;;488386;238;27983;-80
2023/05/24 07:38:22;;;;;;;11.10;4.00;;;10.00;99.90;;;;;;485319;242;28152;-81
2023/05/24 07:40:25;;;;;;;9.90;4.10;;;;;;;;;;488424;240;27940;-80
2023/05/24 07:42:26;;;;;;;12.00;4.00;;;10.20;99.90;;;;;;485840;242;27117;-79
2023/05/24 07:44:28;;;;;;;8.63;3.80;;;10.40;99.90;;;;;;488396;241;28388;-79
2023/05/24 07:46:29;;;;;;;7.80;3.33;;;10.40;99.90;;;;;;485376;242;28158;-81
2023/05/24 07:48:30;;;;;;;15.03;3.90;;;10.70;99.90;;;;;;488454;240;28061;-80
2023/05/24 07:54:46;;;;;;;12.03;4.30;;;10.60;99.90;;;;;;476477;241;28216;-84
2023/05/24 07:56:47;;;;;;;8.23;4.23;;;10.50;99.90;;;;;;472514;251;28118;-78
2023/05/24 07:58:50;;;;;;;15.23;3.87;;;10.50;99.90;;;;;;474652;245;28082;-83
2023/05/24 08:00:50;;;;;;;14.40;4.07;;;10.30;99.90;;;;;;474332;249;28123;-83
2023/05/24 08:02:51;;;;;;;7.13;3.20;;;10.30;99.90;;;;;;472633;252;28047;-82
2023/05/24 08:04:52;;;;;;;6.63;3.23;;;10.00;99.90;;;;;;472469;242;27809;-82
2023/05/24 08:06:54;;;;;;;16.10;3.60;;;10.10;99.90;;;;;;474580;242;28263;-82
2023/05/24 08:08:55;;;;;;;10.50;4.03;;;10.30;99.90;;;;;;484650;242;28192;-82
2023/05/24 08:10:57;;;;;;;42.20;3.83;;;;;;;;;;486236;245;28167;-82
2023/05/24 08:12:59;;;;;;;10.23;3.47;;;10.30;99.90;;;;;;479358;239;27171;-79
2023/05/24 08:15:00;;;;;;;15.20;3.90;;;10.40;99.90;;;;;;480879;244;28036;-79
2023/05/24 08:17:01;;;;;;;8.27;3.77;;;10.70;99.90;;;;;;478881;242;28260;-80
2023/05/24 08:19:02;;;;;;;11.13;3.47;;;10.50;99.90;;;;;;480878;243;27971;-79
2023/05/24 08:21:04;;;;;;;9.97;3.17;;;10.60;99.90;;;;;;478929;246;28029;-82
2023/05/24 08:23:05;;;;;;;11.30;3.40;;;10.60;99.90;;;;;;480901;243;28293;-80
2023/05/24 08:25:06;;;;;;;13.97;3.50;;;10.90;99.90;;;;;;478857;249;28136;-80
2023/05/24 08:27:07;;;;;;;6.77;3.33;;;10.90;99.90;;;;;;480924;244;28287;-81
2023/05/24 08:29:09;;;;;;;11.10;3.50;;;10.90;99.90;;;;;;478899;243;28163;-79
2023/05/24 08:31:10;;;;;;;6.37;3.20;;;10.90;99.90;;;;;;480897;243;28125;-83
2023/05/24 08:33:11;;;;;;;7.23;2.70;;;10.70;99.90;;;;;;478925;246;28117;-78
2023/05/24 08:35:12;;;;;;;6.90;2.97;;;10.70;99.90;;;;;;480900;244;28058;-81
2023/05/24 08:37:18;;;;;;;15.07;4.27;;;10.90;99.90;;;;;;478917;249;28199;-79
2023/05/24 08:39:15;;;;;;;7.53;2.83;;;10.80;99.90;;;;;;476728;245;28261;-79
2023/05/24 08:41:16;;;;;;;7.00;3.03;;;11.00;99.90;;;;;;478199;246;28333;-81
2023/05/24 08:43:17;;;;;;;5.27;3.03;;;11.20;99.90;;;;;;478181;240;28263;-79
2023/05/24 08:45:19;;;;;;;6.87;3.20;;;11.40;99.90;;;;;;475839;240;28565;-79
2023/05/24 08:47:23;;;;;;;13.43;3.60;;;11.40;97.70;;;;;;480050;244;28227;-78
2023/05/24 08:49:24;;;;;;;5.53;2.77;;;11.10;99.50;;;;;;477744;244;28080;-83
2023/05/24 08:51:26;;;;;;;6.80;2.83;;;11.20;99.90;;;;;;479557;246;27933;-81
2023/05/24 08:53:27;;;;;;;8.63;3.17;;;11.30;99.10;;;;;;479727;249;28037;-82
2023/05/24 08:55:28;;;;;;;4.27;2.23;;;11.40;98.60;;;;;;479552;244;28270;-83
2023/05/24 08:59:46;;;;;;;6.30;2.67;;;11.50;98.60;;;;;;480795;236;27990;-78
2023/05/24 09:06:10;;;;;;;7.67;3.20;;;11.70;99.10;;;;;;478167;248;28326;-80
2023/05/24 09:08:12;;;;;;;7.83;2.90;;;11.80;99.70;;;;;;477912;248;28243;-79
2023/05/24 09:10:12;;;;;;;11.97;3.30;;;11.70;99.90;;;;;;477925;248;27957;-80
2023/05/24 09:14:26;;;;;;;6.33;3.13;;;12.00;99.90;;;;;;481285;248;28222;-80
2023/05/24 09:16:27;;;;;;;5.00;2.83;;;11.90;99.90;;;;;;487527;244;28722;-81
2023/05/24 09:18:28;;;;;;;9.00;3.20;;;11.90;99.40;;;;;;487588;245;28787;-79
2023/05/24 09:20:29;;;;;;;6.50;2.93;;;12.10;96.50;;;;;;487600;245;28482;-80
2023/05/24 09:24:43;;;;;;;8.60;2.90;;;12.10;97.00;;;;;;472187;250;28300;-79
2023/05/24 09:26:45;;;;;;;9.63;3.27;;;12.30;96.60;;;;;;481082;247;28406;-81
2023/05/24 09:28:47;;;;;;;5.73;2.40;;;;;;;;;;481056;248;28517;-85
2023/05/24 09:30:48;;;;;;;6.10;2.47;;;12.00;94.70;;;;;;481067;248;26620;-78
2023/05/24 09:32:49;;;;;;;9.03;3.00;;;12.10;93.40;;;;;;481048;248;28406;-82
2023/05/24 09:34:51;;;;;;;5.17;2.73;;;12.10;92.30;;;;;;481027;248;28347;-79
2023/05/24 09:36:52;;;;;;;8.90;2.67;;;12.00;93.60;;;;;;481040;248;28564;-82
2023/05/24 09:38:53;;;;;;;6.73;2.83;;;12.20;93.70;;;;;;481033;248;28394;-81
2023/05/24 09:40:54;;;;;;;8.23;3.17;;;12.20;91.40;;;;;;481058;248;28648;-82
2023/05/24 09:42:55;;;;;;;8.00;2.83;;;12.30;90.50;;;;;;481103;243;28349;-78
2023/05/24 09:44:57;;;;;;;12.13;2.70;;;12.40;87.20;;;;;;481009;248;28849;-80
2023/05/24 09:46:58;;;;;;;5.43;3.20;;;12.60;89.50;;;;;;481001;248;29149;-80
2023/05/24 09:49:02;;;;;;;7.10;2.70;;;12.70;85.40;;;;;;480995;248;28873;-81
2023/05/24 09:51:00;;;;;;;8.70;3.17;;;12.60;84.80;;;;;;480854;248;28205;-82
2023/05/24 09:53:02;;;;;;;6.70;2.93;;;12.30;86.40;;;;;;481058;240;28358;-82
2023/05/24 09:55:03;;;;;;;6.20;3.10;;;12.30;88.60;;;;;;481036;248;28335;-79
2023/05/24 09:57:05;;;;;;;3.77;2.33;;;12.60;88.00;;;;;;481063;248;28344;-81
2023/05/24 09:59:07;;;;;;;6.40;3.10;;;12.40;86.60;;;;;;481009;248;28224;-82
2023/05/24 10:01:07;;;;;;;5.10;2.47;;;12.60;89.40;;;;;;480877;248;28373;-82
2023/05/24 10:03:09;;;;;;;7.83;3.10;;;12.90;91.70;;;;;;480960;248;28338;-81
2023/05/24 10:05:10;;;;;;;8.60;2.80;;;13.10;89.60;;;;;;480889;248;28575;-80
2023/05/24 10:07:11;;;;;;;7.93;2.77;;;13.30;86.50;;;;;;481007;248;28182;-82
2023/05/24 10:09:12;;;;;;;4.33;2.43;;;13.10;83.50;;;;;;480978;248;28270;-81
2023/05/24 10:11:13;;;;;;;8.20;2.80;;;13.00;83.30;;;;;;481015;248;28870;-81
2023/05/24 10:13:16;;;;;;;5.60;2.67;;;13.10;86.20;;;;;;481043;248;28995;-81
2023/05/24 10:15:15;;;;;;;7.20;2.93;;;13.00;83.40;;;;;;480865;248;28746;-81
2023/05/24 10:17:17;;;;;;;7.07;2.90;;;12.90;85.50;;;;;;480971;248;28186;-83
2023/05/24 10:19:20;;;;;;;6.03;2.70;;;;;;;;;;480967;248;28179;-84
2023/05/24 10:21:20;;;;;;;5.73;2.83;;;13.10;90.40;;;;;;480879;248;26630;-83
2023/05/24 10:23:22;;;;;;;6.87;2.37;;;13.50;88.60;;;;;;480796;248;28525;-81
2023/05/24 10:25:26;;;;;;;6.83;2.83;;;13.40;86.80;;;;;;484564;246;28321;-83
2023/05/24 10:27:29;;;;;;;6.20;2.40;;;13.30;88.40;;;;;;484619;246;28322;-84
2023/05/24 10:29:28;;;;;;;6.03;2.50;;;13.60;89.00;;;;;;484419;246;28436;-83
2023/05/24 10:31:30;;;;;;;7.20;3.30;;;13.50;85.70;;;;;;484568;246;28111;-83
2023/05/24 10:33:31;;;;;;;8.93;2.90;;;13.50;88.10;;;;;;484476;246;28353;-84
2023/05/24 10:35:32;;;;;;;10.10;2.87;;;13.40;90.10;;;;;;484486;246;28462;-83
2023/05/24 10:37:33;;;;;;;7.97;3.00;;;13.40;88.10;;;;;;484530;246;29379;-84
2023/05/24 10:39:36;;;;;;;5.90;2.80;;;13.30;81.90;;;;;;484574;245;29019;-81
2023/05/24 10:41:36;;;;;;;7.53;2.80;;;13.30;87.70;;;;;;484595;246;28665;-81
2023/05/24 10:43:37;;;;;;;7.53;3.13;;;13.80;80.40;;;;;;484628;246;28397;-80
2023/05/24 10:45:38;;;;;;;6.00;2.80;;;13.40;79.50;;;;;;484583;246;28532;-80
2023/05/24 10:47:41;;;;;;;6.50;2.70;;;13.30;84.80;;;;;;484578;246;28325;-84